Lindenberg, Germany

12:17 AM CEST on September 01, 2016 (GMT +0200)
Weinberge | | Change Station

Elev 144 ft 52.18 °N, 14.23 °E | Updated 8 seconds ago

Clear
Clear
58.8 °F
Feels Like 58.8 °F
N
0.0
Wind Variable Wind from SW
Gusts 0.0 mph

Today
High -- | Low -- °F
--% Chance of Precip.
Yesterday
High -- | Low -- °F
Precip. -- in
Pressure 30.12 in
Visibility -9999.0 miles
Clouds
Dew Point 37 °F
Humidity 44%
Rainfall 0.00 in
Snow Depth Not available.
6:15 AM 7:50 PM
Waning Crescent, 0% visible
METAR EDDB 312150Z 12003KT CAVOK 15/10 Q1020 NOSIG
Pressure 30.12 in
Visibility -9999.0 miles
Clouds
Dew Point 37 °F
Humidity 44%
Rainfall 0.00 in
Snow Depth Not available.
6:15 AM 7:50 PM
Waning Crescent, 0% visible
METAR EDDB 312150Z 12003KT CAVOK 15/10 Q1020 NOSIG

10-Day Weather Forecast

×

Almanac

Astronomy

Sep. 01, 2016 Rise Set
Actual Time
Civil Twilight
Nautical Twilight
Astronomical Twilight
Moon
Length of Visible Light
Length of Day
Tomorrow will be .
, % of the Moon is Illuminated

Today's Extremes

Country Highs Country Lows

Community

WunderPhotos

Upload Photos

1,936,200 photos uploaded!

WunderBlog® & News

Nearby

Air Quality

  Air Quality AQ Index Pollutant
Not available.

Snow Depth

Station Depth Elevation

Earthquake Activity

City Distance Mag. Time & Date
Minimum magnitude displayed is 2.5.

Coastal Water Temperatures

Place Temperature

Stations

Nearby Weather Stations

Station Location Temp. Windchill Dew Point Humidity Wind Precip. Elev Updated Type